sensor_id;sensor_type;location;lat;lon;timestamp;temperature;humidity
14487;DHT22;7329;50.866;4.366;2022-12-07T00:01:07;18.90;99.90
14487;DHT22;7329;50.866;4.366;2022-12-07T00:03:11;18.90;99.90
14487;DHT22;7329;50.866;4.366;2022-12-07T00:05:14;18.90;99.90
14487;DHT22;7329;50.866;4.366;2022-12-07T00:07:16;18.90;99.90
14487;DHT22;7329;50.866;4.366;2022-12-07T00:09:19;18.90;99.90
14487;DHT22;7329;50.866;4.366;2022-12-07T00:11:22;18.90;99.90
14487;DHT22;7329;50.866;4.366;2022-12-07T00:13:24;18.90;99.90
14487;DHT22;7329;50.866;4.366;2022-12-07T00:15:27;18.90;99.90
14487;DHT22;7329;50.866;4.366;2022-12-07T00:17:29;18.80;99.90
14487;DHT22;7329;50.866;4.366;2022-12-07T00:19:33;18.80;99.90
14487;DHT22;7329;50.866;4.366;2022-12-07T00:21:36;18.80;99.90
14487;DHT22;7329;50.866;4.366;2022-12-07T00:23:38;18.80;99.90
14487;DHT22;7329;50.866;4.366;2022-12-07T00:25:41;18.80;99.90
14487;DHT22;7329;50.866;4.366;2022-12-07T00:27:43;18.80;99.90
14487;DHT22;7329;50.866;4.366;2022-12-07T00:29:45;18.80;99.90
14487;DHT22;7329;50.866;4.366;2022-12-07T00:31:48;18.80;99.90
14487;DHT22;7329;50.866;4.366;2022-12-07T00:33:50;18.80;99.90
14487;DHT22;7329;50.866;4.366;2022-12-07T00:35:56;18.80;99.90
14487;DHT22;7329;50.866;4.366;2022-12-07T00:37:59;18.80;99.90
14487;DHT22;7329;50.866;4.366;2022-12-07T00:40:01;18.70;99.90
14487;DHT22;7329;50.866;4.366;2022-12-07T00:42:04;18.70;99.90
14487;DHT22;7329;50.866;4.366;2022-12-07T00:44:06;18.70;99.90
14487;DHT22;7329;50.866;4.366;2022-12-07T00:46:09;18.70;99.90
14487;DHT22;7329;50.866;4.366;2022-12-07T00:48:11;18.70;99.90
14487;DHT22;7329;50.866;4.366;2022-12-07T00:50:14;18.70;99.90
14487;DHT22;7329;50.866;4.366;2022-12-07T00:52:17;18.70;99.90
14487;DHT22;7329;50.866;4.366;2022-12-07T00:54:20;18.70;99.90
14487;DHT22;7329;50.866;4.366;2022-12-07T00:56:23;18.70;99.90
14487;DHT22;7329;50.866;4.366;2022-12-07T00:58:26;18.70;99.90
14487;DHT22;7329;50.866;4.366;2022-12-07T01:00:28;18.70;99.90
14487;DHT22;7329;50.866;4.366;2022-12-07T01:02:31;18.70;99.90
14487;DHT22;7329;50.866;4.366;2022-12-07T01:04:33;18.60;99.90
14487;DHT22;7329;50.866;4.366;2022-12-07T01:06:36;18.60;99.90
14487;DHT22;7329;50.866;4.366;2022-12-07T01:08:40;18.60;99.90
14487;DHT22;7329;50.866;4.366;2022-12-07T01:10:42;18.60;99.90
14487;DHT22;7329;50.866;4.366;2022-12-07T01:12:44;18.60;99.90
14487;DHT22;7329;50.866;4.366;2022-12-07T01:14:47;18.60;99.90
14487;DHT22;7329;50.866;4.366;2022-12-07T01:16:49;18.60;99.90
14487;DHT22;7329;50.866;4.366;2022-12-07T01:18:53;18.60;99.90
14487;DHT22;7329;50.866;4.366;2022-12-07T01:21:00;18.60;99.90
14487;DHT22;7329;50.866;4.366;2022-12-07T01:23:03;18.60;99.90
14487;DHT22;7329;50.866;4.366;2022-12-07T01:25:07;18.60;99.90
14487;DHT22;7329;50.866;4.366;2022-12-07T01:27:10;18.60;99.90
14487;DHT22;7329;50.866;4.366;2022-12-07T01:29:12;18.60;99.90
14487;DHT22;7329;50.866;4.366;2022-12-07T01:31:16;18.60;99.90
14487;DHT22;7329;50.866;4.366;2022-12-07T01:33:19;18.50;99.90
14487;DHT22;7329;50.866;4.366;2022-12-07T01:35:21;18.50;99.90
14487;DHT22;7329;50.866;4.366;2022-12-07T01:37:24;18.50;99.90
14487;DHT22;7329;50.866;4.366;2022-12-07T01:39:26;18.50;99.90
14487;DHT22;7329;50.866;4.366;2022-12-07T01:41:32;18.50;99.90
14487;DHT22;7329;50.866;4.366;2022-12-07T01:43:34;18.50;99.90
14487;DHT22;7329;50.866;4.366;2022-12-07T01:45:39;18.50;99.90
14487;DHT22;7329;50.866;4.366;2022-12-07T01:47:42;18.50;99.90
14487;DHT22;7329;50.866;4.366;2022-12-07T01:49:48;18.50;99.90
14487;DHT22;7329;50.866;4.366;2022-12-07T01:51:54;18.50;99.90
14487;DHT22;7329;50.866;4.366;2022-12-07T01:53:58;18.50;99.90
14487;DHT22;7329;50.866;4.366;2022-12-07T01:56:00;18.50;99.90
14487;DHT22;7329;50.866;4.366;2022-12-07T01:58:04;18.50;99.90
14487;DHT22;7329;50.866;4.366;2022-12-07T02:00:08;18.50;99.90
14487;DHT22;7329;50.866;4.366;2022-12-07T02:02:17;18.50;99.90
14487;DHT22;7329;50.866;4.366;2022-12-07T02:04:21;18.50;99.90
14487;DHT22;7329;50.866;4.366;2022-12-07T02:06:25;18.40;99.90
14487;DHT22;7329;50.866;4.366;2022-12-07T02:08:28;18.40;99.90
14487;DHT22;7329;50.866;4.366;2022-12-07T02:10:31;18.40;99.90
14487;DHT22;7329;50.866;4.366;2022-12-07T02:12:34;18.50;99.90
14487;DHT22;7329;50.866;4.366;2022-12-07T02:14:37;18.40;99.90
14487;DHT22;7329;50.866;4.366;2022-12-07T02:16:50;18.40;99.90
14487;DHT22;7329;50.866;4.366;2022-12-07T02:19:22;18.40;99.90
14487;DHT22;7329;50.866;4.366;2022-12-07T02:21:34;18.40;99.90
14487;DHT22;7329;50.866;4.366;2022-12-07T02:26:39;18.40;99.90
14487;DHT22;7329;50.866;4.366;2022-12-07T02:29:01;18.40;99.90
14487;DHT22;7329;50.866;4.366;2022-12-07T02:31:12;18.40;99.90
14487;DHT22;7329;50.866;4.366;2022-12-07T02:33:23;18.40;99.90
14487;DHT22;7329;50.866;4.366;2022-12-07T02:35:30;18.40;99.90
14487;DHT22;7329;50.866;4.366;2022-12-07T02:37:37;18.40;99.90
14487;DHT22;7329;50.866;4.366;2022-12-07T02:39:44;18.40;99.90
14487;DHT22;7329;50.866;4.366;2022-12-07T02:41:49;18.40;99.90
14487;DHT22;7329;50.866;4.366;2022-12-07T02:43:58;18.30;99.90
14487;DHT22;7329;50.866;4.366;2022-12-07T02:46:04;18.40;99.90
14487;DHT22;7329;50.866;4.366;2022-12-07T02:48:08;18.40;99.90
14487;DHT22;7329;50.866;4.366;2022-12-07T02:50:12;18.40;99.90
14487;DHT22;7329;50.866;4.366;2022-12-07T02:52:14;18.40;99.90
14487;DHT22;7329;50.866;4.366;2022-12-07T02:54:19;18.30;99.90
14487;DHT22;7329;50.866;4.366;2022-12-07T02:56:26;18.30;99.90
14487;DHT22;7329;50.866;4.366;2022-12-07T02:58:41;18.30;99.90
14487;DHT22;7329;50.866;4.366;2022-12-07T03:00:52;18.30;99.90
14487;DHT22;7329;50.866;4.366;2022-12-07T03:03:00;18.30;99.90
14487;DHT22;7329;50.866;4.366;2022-12-07T03:05:23;18.30;99.90
14487;DHT22;7329;50.866;4.366;2022-12-07T03:07:36;18.30;99.90
14487;DHT22;7329;50.866;4.366;2022-12-07T03:09:47;18.30;99.90
14487;DHT22;7329;50.866;4.366;2022-12-07T03:12:00;18.30;99.90
14487;DHT22;7329;50.866;4.366;2022-12-07T03:14:12;18.30;99.90
14487;DHT22;7329;50.866;4.366;2022-12-07T03:16:19;18.30;99.90
14487;DHT22;7329;50.866;4.366;2022-12-07T03:18:25;18.20;99.90
14487;DHT22;7329;50.866;4.366;2022-12-07T03:20:29;18.30;99.90
14487;DHT22;7329;50.866;4.366;2022-12-07T03:22:34;18.30;99.90
14487;DHT22;7329;50.866;4.366;2022-12-07T03:24:41;18.30;99.90
14487;DHT22;7329;50.866;4.366;2022-12-07T03:26:48;18.20;99.90
14487;DHT22;7329;50.866;4.366;2022-12-07T03:28:55;18.20;99.90
14487;DHT22;7329;50.866;4.366;2022-12-07T03:31:02;18.20;99.90
14487;DHT22;7329;50.866;4.366;2022-12-07T03:33:08;18.20;99.90
14487;DHT22;7329;50.866;4.366;2022-12-07T03:35:16;18.20;99.90
14487;DHT22;7329;50.866;4.366;2022-12-07T03:37:25;18.20;99.90
14487;DHT22;7329;50.866;4.366;2022-12-07T03:39:33;18.20;99.90
14487;DHT22;7329;50.866;4.366;2022-12-07T03:41:37;18.20;99.90
14487;DHT22;7329;50.866;4.366;2022-12-07T03:43:40;18.20;99.90
14487;DHT22;7329;50.866;4.366;2022-12-07T03:45:45;18.20;99.90
14487;DHT22;7329;50.866;4.366;2022-12-07T03:47:58;18.20;99.90
14487;DHT22;7329;50.866;4.366;2022-12-07T03:50:09;18.20;99.90
14487;DHT22;7329;50.866;4.366;2022-12-07T03:52:20;18.10;99.90
14487;DHT22;7329;50.866;4.366;2022-12-07T03:54:28;18.10;99.90
14487;DHT22;7329;50.866;4.366;2022-12-07T03:56:32;18.20;99.90
14487;DHT22;7329;50.866;4.366;2022-12-07T03:58:35;18.10;99.90
14487;DHT22;7329;50.866;4.366;2022-12-07T04:00:38;18.10;99.90
14487;DHT22;7329;50.866;4.366;2022-12-07T04:02:41;18.10;99.90
14487;DHT22;7329;50.866;4.366;2022-12-07T04:04:44;18.10;99.90
14487;DHT22;7329;50.866;4.366;2022-12-07T04:06:48;18.10;99.90
14487;DHT22;7329;50.866;4.366;2022-12-07T04:08:50;18.10;99.90
14487;DHT22;7329;50.866;4.366;2022-12-07T04:10:53;18.10;99.90
14487;DHT22;7329;50.866;4.366;2022-12-07T04:12:55;18.10;99.90
14487;DHT22;7329;50.866;4.366;2022-12-07T04:14:58;18.10;99.90
14487;DHT22;7329;50.866;4.366;2022-12-07T04:17:00;18.10;99.90
14487;DHT22;7329;50.866;4.366;2022-12-07T04:19:02;18.10;99.90
14487;DHT22;7329;50.866;4.366;2022-12-07T04:21:05;18.00;99.90
14487;DHT22;7329;50.866;4.366;2022-12-07T04:23:09;18.10;99.90
14487;DHT22;7329;50.866;4.366;2022-12-07T04:25:11;18.00;99.90
14487;DHT22;7329;50.866;4.366;2022-12-07T04:27:13;18.00;99.90
14487;DHT22;7329;50.866;4.366;2022-12-07T04:29:16;18.10;99.90
14487;DHT22;7329;50.866;4.366;2022-12-07T04:31:19;18.00;99.90
14487;DHT22;7329;50.866;4.366;2022-12-07T04:33:21;18.00;99.90
14487;DHT22;7329;50.866;4.366;2022-12-07T04:35:24;18.00;99.90
14487;DHT22;7329;50.866;4.366;2022-12-07T04:37:26;18.00;99.90
14487;DHT22;7329;50.866;4.366;2022-12-07T04:39:32;18.00;99.90
14487;DHT22;7329;50.866;4.366;2022-12-07T04:41:34;18.00;99.90
14487;DHT22;7329;50.866;4.366;2022-12-07T04:43:37;18.00;99.90
14487;DHT22;7329;50.866;4.366;2022-12-07T04:45:39;18.00;99.90
14487;DHT22;7329;50.866;4.366;2022-12-07T04:47:47;18.00;99.90
14487;DHT22;7329;50.866;4.366;2022-12-07T04:49:49;18.00;99.90
14487;DHT22;7329;50.866;4.366;2022-12-07T04:51:52;18.00;99.90
14487;DHT22;7329;50.866;4.366;2022-12-07T04:53:55;18.00;99.90
14487;DHT22;7329;50.866;4.366;2022-12-07T04:55:59;18.00;99.90
14487;DHT22;7329;50.866;4.366;2022-12-07T04:58:02;18.00;99.90
14487;DHT22;7329;50.866;4.366;2022-12-07T05:00:05;18.00;99.90
14487;DHT22;7329;50.866;4.366;2022-12-07T05:02:08;18.00;99.90
14487;DHT22;7329;50.866;4.366;2022-12-07T05:04:10;18.00;99.90
14487;DHT22;7329;50.866;4.366;2022-12-07T05:06:13;18.00;99.90
14487;DHT22;7329;50.866;4.366;2022-12-07T05:08:15;18.00;99.90
14487;DHT22;7329;50.866;4.366;2022-12-07T05:10:18;18.00;99.90
14487;DHT22;7329;50.866;4.366;2022-12-07T05:12:22;17.90;99.90
14487;DHT22;7329;50.866;4.366;2022-12-07T05:14:24;17.90;99.90
14487;DHT22;7329;50.866;4.366;2022-12-07T05:16:26;17.90;99.90
14487;DHT22;7329;50.866;4.366;2022-12-07T05:18:29;17.90;99.90
14487;DHT22;7329;50.866;4.366;2022-12-07T05:20:31;17.90;99.90
14487;DHT22;7329;50.866;4.366;2022-12-07T05:22:34;17.90;99.90
14487;DHT22;7329;50.866;4.366;2022-12-07T05:24:36;17.90;99.90
14487;DHT22;7329;50.866;4.366;2022-12-07T05:26:39;17.90;99.90
14487;DHT22;7329;50.866;4.366;2022-12-07T05:28:43;17.90;99.90
14487;DHT22;7329;50.866;4.366;2022-12-07T05:30:45;17.90;99.90
14487;DHT22;7329;50.866;4.366;2022-12-07T05:32:48;17.90;99.90
14487;DHT22;7329;50.866;4.366;2022-12-07T05:34:50;17.90;99.90
14487;DHT22;7329;50.866;4.366;2022-12-07T05:36:53;17.90;99.90
14487;DHT22;7329;50.866;4.366;2022-12-07T05:38:55;17.90;99.90
14487;DHT22;7329;50.866;4.366;2022-12-07T05:41:00;17.90;99.90
14487;DHT22;7329;50.866;4.366;2022-12-07T05:43:03;17.90;99.90
14487;DHT22;7329;50.866;4.366;2022-12-07T05:45:09;17.90;99.90
14487;DHT22;7329;50.866;4.366;2022-12-07T05:47:12;17.80;99.90
14487;DHT22;7329;50.866;4.366;2022-12-07T05:49:14;17.90;99.90
14487;DHT22;7329;50.866;4.366;2022-12-07T05:51:17;17.80;99.90
14487;DHT22;7329;50.866;4.366;2022-12-07T05:53:20;17.90;99.90
14487;DHT22;7329;50.866;4.366;2022-12-07T05:55:22;17.90;99.90
14487;DHT22;7329;50.866;4.366;2022-12-07T05:57:25;17.80;99.90
14487;DHT22;7329;50.866;4.366;2022-12-07T05:59:27;17.80;99.90
14487;DHT22;7329;50.866;4.366;2022-12-07T06:01:30;17.90;99.90
14487;DHT22;7329;50.866;4.366;2022-12-07T06:03:32;17.90;99.90
14487;DHT22;7329;50.866;4.366;2022-12-07T06:05:34;18.00;99.90
14487;DHT22;7329;50.866;4.366;2022-12-07T06:07:37;18.00;99.90
14487;DHT22;7329;50.866;4.366;2022-12-07T06:09:39;18.00;99.90
14487;DHT22;7329;50.866;4.366;2022-12-07T06:11:45;18.10;99.90
14487;DHT22;7329;50.866;4.366;2022-12-07T06:14:05;18.10;99.90
14487;DHT22;7329;50.866;4.366;2022-12-07T06:16:07;18.10;99.90
14487;DHT22;7329;50.866;4.366;2022-12-07T06:18:11;18.20;99.90
14487;DHT22;7329;50.866;4.366;2022-12-07T06:20:13;18.20;99.90
14487;DHT22;7329;50.866;4.366;2022-12-07T06:22:15;18.20;99.90
14487;DHT22;7329;50.866;4.366;2022-12-07T06:24:18;18.30;99.90
14487;DHT22;7329;50.866;4.366;2022-12-07T06:26:21;18.30;99.90
14487;DHT22;7329;50.866;4.366;2022-12-07T06:28:23;18.30;99.90
14487;DHT22;7329;50.866;4.366;2022-12-07T06:30:25;18.40;99.90
14487;DHT22;7329;50.866;4.366;2022-12-07T06:32:28;18.40;99.90
14487;DHT22;7329;50.866;4.366;2022-12-07T06:34:31;18.40;99.90
14487;DHT22;7329;50.866;4.366;2022-12-07T06:36:34;18.40;99.90
14487;DHT22;7329;50.866;4.366;2022-12-07T06:38:37;18.40;99.90
14487;DHT22;7329;50.866;4.366;2022-12-07T06:40:39;18.40;99.90
14487;DHT22;7329;50.866;4.366;2022-12-07T06:42:41;18.50;99.90
14487;DHT22;7329;50.866;4.366;2022-12-07T06:44:44;18.50;99.90
14487;DHT22;7329;50.866;4.366;2022-12-07T06:46:46;18.50;99.90
14487;DHT22;7329;50.866;4.366;2022-12-07T06:48:48;18.40;99.90
14487;DHT22;7329;50.866;4.366;2022-12-07T06:50:52;18.50;99.90
14487;DHT22;7329;50.866;4.366;2022-12-07T06:52:54;18.50;99.90
14487;DHT22;7329;50.866;4.366;2022-12-07T06:54:57;18.50;99.90
14487;DHT22;7329;50.866;4.366;2022-12-07T06:56:59;18.50;99.90
14487;DHT22;7329;50.866;4.366;2022-12-07T06:59:02;18.50;99.90
14487;DHT22;7329;50.866;4.366;2022-12-07T07:01:08;18.50;99.90
14487;DHT22;7329;50.866;4.366;2022-12-07T07:03:11;18.50;99.90
14487;DHT22;7329;50.866;4.366;2022-12-07T07:05:14;18.50;99.90
14487;DHT22;7329;50.866;4.366;2022-12-07T07:07:18;18.60;99.90
14487;DHT22;7329;50.866;4.366;2022-12-07T07:09:20;18.60;99.90
14487;DHT22;7329;50.866;4.366;2022-12-07T07:11:22;18.60;99.90
14487;DHT22;7329;50.866;4.366;2022-12-07T07:13:25;18.60;99.90
14487;DHT22;7329;50.866;4.366;2022-12-07T07:15:27;18.60;99.90
14487;DHT22;7329;50.866;4.366;2022-12-07T07:17:30;18.70;99.90
14487;DHT22;7329;50.866;4.366;2022-12-07T07:19:32;18.70;99.90
14487;DHT22;7329;50.866;4.366;2022-12-07T07:21:34;18.70;99.90
14487;DHT22;7329;50.866;4.366;2022-12-07T07:23:38;18.70;99.90
14487;DHT22;7329;50.866;4.366;2022-12-07T07:25:40;18.70;99.90
14487;DHT22;7329;50.866;4.366;2022-12-07T07:27:43;18.70;99.90
14487;DHT22;7329;50.866;4.366;2022-12-07T07:29:45;18.80;99.90
14487;DHT22;7329;50.866;4.366;2022-12-07T07:31:47;18.70;99.90
14487;DHT22;7329;50.866;4.366;2022-12-07T07:33:50;18.70;99.90
14487;DHT22;7329;50.866;4.366;2022-12-07T07:35:52;18.80;99.90
14487;DHT22;7329;50.866;4.366;2022-12-07T07:37:54;18.80;99.90
14487;DHT22;7329;50.866;4.366;2022-12-07T07:40:01;18.80;99.90
14487;DHT22;7329;50.866;4.366;2022-12-07T07:42:03;18.80;99.90
14487;DHT22;7329;50.866;4.366;2022-12-07T07:44:06;18.80;99.90
14487;DHT22;7329;50.866;4.366;2022-12-07T07:46:08;18.80;99.90
14487;DHT22;7329;50.866;4.366;2022-12-07T07:48:11;18.90;99.90
14487;DHT22;7329;50.866;4.366;2022-12-07T07:50:14;18.90;99.90
14487;DHT22;7329;50.866;4.366;2022-12-07T07:52:17;18.90;99.90
14487;DHT22;7329;50.866;4.366;2022-12-07T07:54:19;18.90;99.90
14487;DHT22;7329;50.866;4.366;2022-12-07T07:56:23;18.90;99.90
14487;DHT22;7329;50.866;4.366;2022-12-07T07:58:25;18.90;99.90
14487;DHT22;7329;50.866;4.366;2022-12-07T08:00:27;18.90;99.90
14487;DHT22;7329;50.866;4.366;2022-12-07T08:02:30;18.90;99.90
14487;DHT22;7329;50.866;4.366;2022-12-07T08:04:32;19.00;99.90
14487;DHT22;7329;50.866;4.366;2022-12-07T08:06:34;19.00;99.90
14487;DHT22;7329;50.866;4.366;2022-12-07T08:08:37;19.00;99.90
14487;DHT22;7329;50.866;4.366;2022-12-07T08:10:39;19.00;99.90
14487;DHT22;7329;50.866;4.366;2022-12-07T08:12:43;19.00;99.90
14487;DHT22;7329;50.866;4.366;2022-12-07T08:15:04;19.00;99.90
14487;DHT22;7329;50.866;4.366;2022-12-07T08:17:06;19.00;99.90
14487;DHT22;7329;50.866;4.366;2022-12-07T08:19:08;18.90;99.90
14487;DHT22;7329;50.866;4.366;2022-12-07T08:21:13;18.90;99.90
14487;DHT22;7329;50.866;4.366;2022-12-07T08:23:16;19.00;99.90
14487;DHT22;7329;50.866;4.366;2022-12-07T08:25:18;19.00;99.90
14487;DHT22;7329;50.866;4.366;2022-12-07T08:27:22;19.10;99.90
14487;DHT22;7329;50.866;4.366;2022-12-07T08:29:29;19.10;99.90
14487;DHT22;7329;50.866;4.366;2022-12-07T08:31:31;19.10;99.90
14487;DHT22;7329;50.866;4.366;2022-12-07T08:33:34;19.10;99.90
14487;DHT22;7329;50.866;4.366;2022-12-07T08:35:36;19.10;99.90
14487;DHT22;7329;50.866;4.366;2022-12-07T08:37:39;19.00;99.90
14487;DHT22;7329;50.866;4.366;2022-12-07T08:39:42;18.60;99.20
14487;DHT22;7329;50.866;4.366;2022-12-07T08:41:44;17.20;95.20
14487;DHT22;7329;50.866;4.366;2022-12-07T08:43:47;14.90;97.20
14487;DHT22;7329;50.866;4.366;2022-12-07T08:45:54;13.30;99.90
14487;DHT22;7329;50.866;4.366;2022-12-07T08:48:04;12.20;99.90
14487;DHT22;7329;50.866;4.366;2022-12-07T08:50:08;11.30;99.90
14487;DHT22;7329;50.866;4.366;2022-12-07T08:52:12;10.30;99.90
14487;DHT22;7329;50.866;4.366;2022-12-07T08:54:17;11.40;99.90
14487;DHT22;7329;50.866;4.366;2022-12-07T08:56:20;12.70;99.90
14487;DHT22;7329;50.866;4.366;2022-12-07T08:58:24;13.70;99.90
14487;DHT22;7329;50.866;4.366;2022-12-07T09:00:26;14.60;99.90
14487;DHT22;7329;50.866;4.366;2022-12-07T09:02:30;15.20;99.90
14487;DHT22;7329;50.866;4.366;2022-12-07T09:04:33;15.70;99.90
14487;DHT22;7329;50.866;4.366;2022-12-07T09:06:35;16.10;99.90
14487;DHT22;7329;50.866;4.366;2022-12-07T09:08:41;16.40;99.90
14487;DHT22;7329;50.866;4.366;2022-12-07T09:10:44;16.70;99.90
14487;DHT22;7329;50.866;4.366;2022-12-07T09:12:47;17.00;99.90
14487;DHT22;7329;50.866;4.366;2022-12-07T09:14:49;17.20;99.90
14487;DHT22;7329;50.866;4.366;2022-12-07T09:16:51;17.40;99.90
14487;DHT22;7329;50.866;4.366;2022-12-07T09:18:55;17.60;99.90
14487;DHT22;7329;50.866;4.366;2022-12-07T09:20:58;17.70;99.90
14487;DHT22;7329;50.866;4.366;2022-12-07T09:23:00;17.90;99.90
14487;DHT22;7329;50.866;4.366;2022-12-07T09:25:03;18.00;99.90
14487;DHT22;7329;50.866;4.366;2022-12-07T09:27:06;18.10;99.90
14487;DHT22;7329;50.866;4.366;2022-12-07T09:29:08;18.20;99.90
14487;DHT22;7329;50.866;4.366;2022-12-07T09:31:11;18.30;99.90
14487;DHT22;7329;50.866;4.366;2022-12-07T09:33:13;18.30;99.90
14487;DHT22;7329;50.866;4.366;2022-12-07T09:35:17;18.50;99.90
14487;DHT22;7329;50.866;4.366;2022-12-07T09:37:19;18.50;99.90
14487;DHT22;7329;50.866;4.366;2022-12-07T09:39:22;18.60;99.90
14487;DHT22;7329;50.866;4.366;2022-12-07T09:41:26;18.60;99.90
14487;DHT22;7329;50.866;4.366;2022-12-07T09:43:29;18.70;99.90
14487;DHT22;7329;50.866;4.366;2022-12-07T09:45:33;18.80;99.90
14487;DHT22;7329;50.866;4.366;2022-12-07T09:47:36;18.80;99.90
14487;DHT22;7329;50.866;4.366;2022-12-07T09:49:39;18.90;99.90
14487;DHT22;7329;50.866;4.366;2022-12-07T09:51:43;18.90;99.90
14487;DHT22;7329;50.866;4.366;2022-12-07T09:53:45;19.00;99.90
14487;DHT22;7329;50.866;4.366;2022-12-07T09:55:48;19.00;99.90
14487;DHT22;7329;50.866;4.366;2022-12-07T09:57:51;19.10;99.90
14487;DHT22;7329;50.866;4.366;2022-12-07T09:59:54;19.10;99.90
14487;DHT22;7329;50.866;4.366;2022-12-07T10:02:22;19.20;99.90
14487;DHT22;7329;50.866;4.366;2022-12-07T10:04:25;19.20;99.90
14487;DHT22;7329;50.866;4.366;2022-12-07T10:06:28;19.30;99.90
14487;DHT22;7329;50.866;4.366;2022-12-07T10:08:33;19.30;99.90
14487;DHT22;7329;50.866;4.366;2022-12-07T10:10:35;19.30;99.90
14487;DHT22;7329;50.866;4.366;2022-12-07T10:12:57;19.40;99.90
14487;DHT22;7329;50.866;4.366;2022-12-07T10:15:01;19.40;99.90
14487;DHT22;7329;50.866;4.366;2022-12-07T10:17:29;19.50;99.90
14487;DHT22;7329;50.866;4.366;2022-12-07T10:19:32;19.50;99.90
14487;DHT22;7329;50.866;4.366;2022-12-07T10:21:35;19.50;99.90
14487;DHT22;7329;50.866;4.366;2022-12-07T10:23:40;19.50;99.90
14487;DHT22;7329;50.866;4.366;2022-12-07T10:25:43;19.60;99.90
14487;DHT22;7329;50.866;4.366;2022-12-07T10:27:57;19.60;99.90
14487;DHT22;7329;50.866;4.366;2022-12-07T10:30:01;19.60;99.90
14487;DHT22;7329;50.866;4.366;2022-12-07T10:32:29;19.70;99.90
14487;DHT22;7329;50.866;4.366;2022-12-07T10:34:34;19.70;99.90
14487;DHT22;7329;50.866;4.366;2022-12-07T10:36:38;19.70;99.90
14487;DHT22;7329;50.866;4.366;2022-12-07T10:38:46;19.80;99.90
14487;DHT22;7329;50.866;4.366;2022-12-07T10:41:03;19.80;99.90
14487;DHT22;7329;50.866;4.366;2022-12-07T10:43:16;19.80;99.90
14487;DHT22;7329;50.866;4.366;2022-12-07T10:45:19;19.80;99.90
14487;DHT22;7329;50.866;4.366;2022-12-07T10:47:31;19.80;99.90
14487;DHT22;7329;50.866;4.366;2022-12-07T10:50:10;19.90;99.90
14487;DHT22;7329;50.866;4.366;2022-12-07T10:52:32;19.80;99.90
14487;DHT22;7329;50.866;4.366;2022-12-07T10:54:44;19.90;99.90
14487;DHT22;7329;50.866;4.366;2022-12-07T10:57:01;19.90;99.90
14487;DHT22;7329;50.866;4.366;2022-12-07T10:59:41;19.90;99.90
14487;DHT22;7329;50.866;4.366;2022-12-07T11:01:48;20.00;99.90
14487;DHT22;7329;50.866;4.366;2022-12-07T11:04:17;20.00;99.90
14487;DHT22;7329;50.866;4.366;2022-12-07T11:06:26;20.00;99.90
14487;DHT22;7329;50.866;4.366;2022-12-07T11:08:44;20.00;99.90
14487;DHT22;7329;50.866;4.366;2022-12-07T11:10:53;20.00;99.90
14487;DHT22;7329;50.866;4.366;2022-12-07T11:13:11;20.10;99.90
14487;DHT22;7329;50.866;4.366;2022-12-07T11:15:18;20.10;99.90
14487;DHT22;7329;50.866;4.366;2022-12-07T11:17:29;20.10;99.90
14487;DHT22;7329;50.866;4.366;2022-12-07T11:19:54;20.10;99.90
14487;DHT22;7329;50.866;4.366;2022-12-07T11:22:08;20.10;99.90
14487;DHT22;7329;50.866;4.366;2022-12-07T11:24:15;20.10;99.90
14487;DHT22;7329;50.866;4.366;2022-12-07T11:26:30;20.10;99.90
14487;DHT22;7329;50.866;4.366;2022-12-07T11:28:54;20.10;99.90
14487;DHT22;7329;50.866;4.366;2022-12-07T11:31:09;20.20;99.90
14487;DHT22;7329;50.866;4.366;2022-12-07T11:33:19;20.20;99.90
14487;DHT22;7329;50.866;4.366;2022-12-07T11:35:30;20.20;99.90
14487;DHT22;7329;50.866;4.366;2022-12-07T11:37:37;20.20;99.90
14487;DHT22;7329;50.866;4.366;2022-12-07T11:39:45;20.20;99.90
14487;DHT22;7329;50.866;4.366;2022-12-07T11:41:54;20.30;99.90
14487;DHT22;7329;50.866;4.366;2022-12-07T11:44:00;20.20;99.90
14487;DHT22;7329;50.866;4.366;2022-12-07T11:46:05;20.20;99.90
14487;DHT22;7329;50.866;4.366;2022-12-07T11:48:15;20.30;99.90
14487;DHT22;7329;50.866;4.366;2022-12-07T11:50:27;20.30;99.90
14487;DHT22;7329;50.866;4.366;2022-12-07T11:52:42;20.30;99.90
14487;DHT22;7329;50.866;4.366;2022-12-07T11:54:45;20.30;99.90
14487;DHT22;7329;50.866;4.366;2022-12-07T11:56:50;20.30;99.90
14487;DHT22;7329;50.866;4.366;2022-12-07T11:58:56;20.40;99.90
14487;DHT22;7329;50.866;4.366;2022-12-07T12:01:08;20.40;99.90
14487;DHT22;7329;50.866;4.366;2022-12-07T12:03:17;20.50;99.90
14487;DHT22;7329;50.866;4.366;2022-12-07T12:05:25;20.60;99.90
14487;DHT22;7329;50.866;4.366;2022-12-07T12:07:28;20.60;99.90
14487;DHT22;7329;50.866;4.366;2022-12-07T12:09:33;20.60;99.90
14487;DHT22;7329;50.866;4.366;2022-12-07T12:11:53;20.60;99.90
14487;DHT22;7329;50.866;4.366;2022-12-07T12:14:17;20.50;99.90
14487;DHT22;7329;50.866;4.366;2022-12-07T12:16:44;20.60;99.90
14487;DHT22;7329;50.866;4.366;2022-12-07T12:19:03;20.60;99.90
14487;DHT22;7329;50.866;4.366;2022-12-07T12:21:11;20.60;99.90
14487;DHT22;7329;50.866;4.366;2022-12-07T12:23:16;20.60;99.90
14487;DHT22;7329;50.866;4.366;2022-12-07T12:25:21;20.60;99.90
14487;DHT22;7329;50.866;4.366;2022-12-07T12:27:30;20.60;99.90
14487;DHT22;7329;50.866;4.366;2022-12-07T12:29:36;20.70;99.90
14487;DHT22;7329;50.866;4.366;2022-12-07T12:31:40;20.70;99.90
14487;DHT22;7329;50.866;4.366;2022-12-07T12:33:45;20.70;99.90
14487;DHT22;7329;50.866;4.366;2022-12-07T12:36:17;20.70;99.90
14487;DHT22;7329;50.866;4.366;2022-12-07T12:38:33;20.80;99.90
14487;DHT22;7329;50.866;4.366;2022-12-07T12:40:43;20.80;99.90
14487;DHT22;7329;50.866;4.366;2022-12-07T12:42:48;20.80;99.90
14487;DHT22;7329;50.866;4.366;2022-12-07T12:45:20;20.90;99.90
14487;DHT22;7329;50.866;4.366;2022-12-07T12:47:43;20.90;99.90
14487;DHT22;7329;50.866;4.366;2022-12-07T12:50:15;20.80;99.90
14487;DHT22;7329;50.866;4.366;2022-12-07T12:55:00;20.90;99.90
14487;DHT22;7329;50.866;4.366;2022-12-07T12:57:08;20.90;99.90
14487;DHT22;7329;50.866;4.366;2022-12-07T12:59:25;20.90;99.90
14487;DHT22;7329;50.866;4.366;2022-12-07T13:01:45;21.00;99.90
14487;DHT22;7329;50.866;4.366;2022-12-07T13:03:52;21.00;99.90
14487;DHT22;7329;50.866;4.366;2022-12-07T13:06:20;21.00;99.90
14487;DHT22;7329;50.866;4.366;2022-12-07T13:08:34;21.10;99.90
14487;DHT22;7329;50.866;4.366;2022-12-07T13:10:42;21.20;99.90
14487;DHT22;7329;50.866;4.366;2022-12-07T13:12:56;21.20;99.90
14487;DHT22;7329;50.866;4.366;2022-12-07T13:15:00;21.10;99.90
14487;DHT22;7329;50.866;4.366;2022-12-07T13:17:04;21.10;99.90
14487;DHT22;7329;50.866;4.366;2022-12-07T13:22:03;21.10;99.90
14487;DHT22;7329;50.866;4.366;2022-12-07T13:24:09;21.10;99.90
14487;DHT22;7329;50.866;4.366;2022-12-07T13:26:16;21.20;99.90
14487;DHT22;7329;50.866;4.366;2022-12-07T13:28:20;21.20;99.90
14487;DHT22;7329;50.866;4.366;2022-12-07T13:30:24;21.30;99.90
14487;DHT22;7329;50.866;4.366;2022-12-07T13:32:28;21.30;99.90
14487;DHT22;7329;50.866;4.366;2022-12-07T13:34:35;21.30;99.90
14487;DHT22;7329;50.866;4.366;2022-12-07T13:36:39;21.30;99.90